createdAt,value
2023-04-16T00:00:36.909Z,11.40
2023-04-16T00:03:11.110Z,12.65
2023-04-16T00:05:41.848Z,11.70
2023-04-16T00:08:10.933Z,12.15
2023-04-16T00:10:40.529Z,9.95
2023-04-16T00:13:10.023Z,11.88
2023-04-16T00:15:58.199Z,12.07
2023-04-16T00:18:30.985Z,10.73
2023-04-16T00:21:01.737Z,12.93
2023-04-16T00:23:31.789Z,12.67
2023-04-16T00:26:01.430Z,11.23
2023-04-16T00:28:34.713Z,12.98
2023-04-16T00:31:04.171Z,11.80
2023-04-16T00:33:33.355Z,9.77
2023-04-16T00:36:04.497Z,10.75
2023-04-16T00:38:33.649Z,12.52
2023-04-16T00:41:02.816Z,11.25
2023-04-16T00:43:32.176Z,12.75
2023-04-16T00:46:01.495Z,10.52
2023-04-16T00:48:32.495Z,12.98
2023-04-16T00:51:07.615Z,11.57
2023-04-16T00:53:37.047Z,10.88
2023-04-16T00:56:08.365Z,10.93
2023-04-16T00:58:38.358Z,10.85
2023-04-16T01:01:08.464Z,12.15
2023-04-16T01:03:41.067Z,11.45
2023-04-16T01:06:11.892Z,11.05
2023-04-16T01:08:44.842Z,10.57
2023-04-16T01:11:13.909Z,9.73
2023-04-16T01:13:43.167Z,10.02
2023-04-16T01:16:15.839Z,10.02
2023-04-16T01:18:54.707Z,11.25
2023-04-16T01:21:25.223Z,10.30
2023-04-16T01:23:54.508Z,10.07
2023-04-16T01:26:23.704Z,10.13
2023-04-16T01:28:53.211Z,11.18
2023-04-16T01:31:22.938Z,9.90
2023-04-16T01:34:07.216Z,11.63
2023-04-16T01:36:38.885Z,10.55
2023-04-16T01:39:11.596Z,9.98
2023-04-16T01:41:40.899Z,8.95
2023-04-16T01:44:10.018Z,9.52
2023-04-16T01:46:39.777Z,11.25
2023-04-16T01:49:09.559Z,9.55
2023-04-16T01:51:40.283Z,10.63
2023-04-16T01:54:09.549Z,11.52
2023-04-16T01:56:38.645Z,10.15
2023-04-16T01:59:08.532Z,9.35
2023-04-16T02:01:43.374Z,9.77
2023-04-16T02:04:13.546Z,8.55
2023-04-16T02:06:44.647Z,8.60
2023-04-16T02:09:16.142Z,10.07
2023-04-16T02:11:45.593Z,8.25
2023-04-16T02:14:14.667Z,9.52
2023-04-16T02:16:44.504Z,8.52
2023-04-16T02:19:33.766Z,9.27
2023-04-16T02:22:04.807Z,7.85
2023-04-16T02:24:33.777Z,9.30
2023-04-16T02:27:07.088Z,9.00
2023-04-16T02:29:36.951Z,8.43
2023-04-16T02:32:13.650Z,7.70
2023-04-16T02:34:46.431Z,8.27
2023-04-16T02:37:17.702Z,9.13
2023-04-16T02:39:47.458Z,8.82
2023-04-16T02:42:16.767Z,8.25
2023-04-16T02:44:45.983Z,8.45
2023-04-16T02:47:15.429Z,7.55
2023-04-16T02:49:44.663Z,8.90
2023-04-16T02:52:15.534Z,8.95
2023-04-16T02:54:46.286Z,7.85
2023-04-16T02:57:15.445Z,8.30
2023-04-16T02:59:44.586Z,7.72
2023-04-16T03:02:16.357Z,8.82
2023-04-16T03:04:45.621Z,8.25
2023-04-16T03:07:15.035Z,8.07
2023-04-16T03:09:44.091Z,7.68
2023-04-16T03:12:14.480Z,7.82
2023-04-16T03:14:43.523Z,6.40
2023-04-16T03:17:12.938Z,7.38
2023-04-16T03:19:42.045Z,7.57
2023-04-16T03:22:11.498Z,7.25
2023-04-16T03:24:41.233Z,6.22
2023-04-16T03:27:10.621Z,8.20
2023-04-16T03:29:41.976Z,6.55
2023-04-16T03:32:12.575Z,9.00
2023-04-16T03:34:42.029Z,7.88
2023-04-16T03:37:12.229Z,7.22
2023-04-16T03:39:41.596Z,6.85
2023-04-16T03:42:13.428Z,6.95
2023-04-16T03:44:44.758Z,6.82
2023-04-16T03:47:14.372Z,8.32
2023-04-16T03:49:43.510Z,6.40
2023-04-16T03:52:13.493Z,6.82
2023-04-16T03:54:42.740Z,7.10
2023-04-16T03:57:28.204Z,7.70
2023-04-16T04:00:04.403Z,8.30
2023-04-16T04:02:43.856Z,7.32
2023-04-16T04:05:19.790Z,8.00
2023-04-16T04:07:50.001Z,8.95
2023-04-16T04:10:19.139Z,7.40
2023-04-16T04:12:48.466Z,9.55
2023-04-16T04:15:19.141Z,10.65
2023-04-16T04:17:50.377Z,7.65
2023-04-16T04:20:20.205Z,8.88
2023-04-16T04:22:51.414Z,8.55
2023-04-16T04:25:23.920Z,8.13
2023-04-16T04:27:53.523Z,8.75
2023-04-16T04:30:35.023Z,7.53
2023-04-16T04:33:05.456Z,9.35
2023-04-16T04:35:35.312Z,7.50
2023-04-16T04:38:04.845Z,9.30
2023-04-16T04:40:35.424Z,8.27
2023-04-16T04:43:06.390Z,9.00
2023-04-16T04:45:37.914Z,9.07
2023-04-16T04:48:07.858Z,9.40
2023-04-16T04:50:38.326Z,7.43
2023-04-16T04:53:10.204Z,8.75
2023-04-16T04:55:40.565Z,8.63
2023-04-16T04:58:10.257Z,9.05
2023-04-16T05:00:42.782Z,10.98
2023-04-16T05:03:12.756Z,10.90
2023-04-16T05:05:42.475Z,11.10
2023-04-16T05:08:11.692Z,12.35
2023-04-16T05:10:41.168Z,10.20
2023-04-16T05:13:10.299Z,9.95
2023-04-16T05:15:41.101Z,9.88
2023-04-16T05:18:10.412Z,11.80
2023-04-16T05:20:39.792Z,11.00
2023-04-16T05:23:09.077Z,11.52
2023-04-16T05:25:38.732Z,11.00
2023-04-16T05:28:08.097Z,13.70
2023-04-16T05:30:37.339Z,11.60
2023-04-16T05:33:08.524Z,12.25
2023-04-16T05:35:37.633Z,12.70
2023-04-16T05:38:06.960Z,12.60
2023-04-16T05:40:36.325Z,12.95
2023-04-16T05:43:05.416Z,10.98
2023-04-16T05:45:39.599Z,14.98
2023-04-16T05:48:10.572Z,12.77
2023-04-16T05:50:39.687Z,12.23
2023-04-16T05:53:11.002Z,12.90
2023-04-16T05:55:40.214Z,13.00
2023-04-16T05:58:09.489Z,12.85
2023-04-16T06:00:39.335Z,12.70
2023-04-16T06:03:10.384Z,12.48
2023-04-16T06:05:39.800Z,11.80
2023-04-16T06:08:09.157Z,10.77
2023-04-16T06:10:38.278Z,10.73
2023-04-16T06:13:07.686Z,10.85
2023-04-16T06:15:36.847Z,12.93
2023-04-16T06:18:06.523Z,13.27
2023-04-16T06:20:37.164Z,12.43
2023-04-16T06:23:06.392Z,12.73
2023-04-16T06:25:35.634Z,12.90
2023-04-16T06:28:05.299Z,12.02
2023-04-16T06:30:34.523Z,14.00
2023-04-16T06:33:03.597Z,10.30
2023-04-16T06:35:32.637Z,12.50
2023-04-16T06:38:03.223Z,11.10
2023-04-16T06:40:32.330Z,10.13
2023-04-16T06:43:01.771Z,10.30
2023-04-16T06:45:31.260Z,9.75
2023-04-16T06:48:01.622Z,10.80
2023-04-16T06:50:31.045Z,10.00
2023-04-16T06:53:00.761Z,10.23
2023-04-16T06:55:31.522Z,9.23
2023-04-16T06:58:00.900Z,8.70
2023-04-16T07:00:30.503Z,9.18
2023-04-16T07:03:03.658Z,8.75
2023-04-16T07:05:33.316Z,9.95
2023-04-16T07:08:02.536Z,8.25
2023-04-16T07:10:33.125Z,9.35
2023-04-16T07:13:05.865Z,9.43
2023-04-16T07:15:41.648Z,9.43
2023-04-16T07:18:12.509Z,9.45
2023-04-16T07:20:50.096Z,9.45
2023-04-16T07:23:21.530Z,9.77
2023-04-16T07:25:52.222Z,9.23
2023-04-16T07:28:21.927Z,9.87
2023-04-16T07:30:51.277Z,10.38
2023-04-16T07:33:20.768Z,9.07
2023-04-16T07:35:51.724Z,10.02
2023-04-16T07:40:52.195Z,9.90
2023-04-16T07:43:21.449Z,9.00
2023-04-16T07:45:50.866Z,8.65
2023-04-16T07:48:20.532Z,8.57
2023-04-16T07:50:50.207Z,8.45
2023-04-16T07:53:19.264Z,9.32
2023-04-16T07:55:48.427Z,8.10
2023-04-16T07:58:19.161Z,7.18
2023-04-16T08:00:50.790Z,6.90
2023-04-16T08:03:20.209Z,7.35
2023-04-16T08:05:49.764Z,6.85
2023-04-16T08:08:20.883Z,7.78
2023-04-16T08:10:55.700Z,7.82
2023-04-16T08:13:27.593Z,8.05
2023-04-16T08:16:01.173Z,7.75
2023-04-16T08:18:30.284Z,7.82
2023-04-16T08:20:59.597Z,7.00
2023-04-16T08:23:28.893Z,6.93
2023-04-16T08:26:00.756Z,8.55
2023-04-16T08:28:31.618Z,7.25
2023-04-16T08:31:01.127Z,6.70
2023-04-16T08:33:30.403Z,7.00
2023-04-16T08:35:59.579Z,6.88
2023-04-16T08:38:28.709Z,6.50
2023-04-16T08:41:03.432Z,7.63
2023-04-16T08:43:47.661Z,7.63
2023-04-16T08:46:22.341Z,6.88
2023-04-16T08:48:53.762Z,7.90
2023-04-16T08:51:23.899Z,7.88
2023-04-16T08:53:54.400Z,6.13
2023-04-16T08:56:24.909Z,7.43
2023-04-16T08:58:56.283Z,7.57
2023-04-16T09:03:55.947Z,7.45
2023-04-16T09:06:25.194Z,7.80
2023-04-16T09:08:55.259Z,7.22
2023-04-16T09:11:24.251Z,6.78
2023-04-16T09:13:55.566Z,7.32
2023-04-16T09:16:25.417Z,6.57
2023-04-16T09:18:54.757Z,5.90
2023-04-16T09:21:24.994Z,7.05
2023-04-16T09:23:55.116Z,6.72
2023-04-16T09:26:24.577Z,7.25
2023-04-16T09:28:55.283Z,5.95
2023-04-16T09:31:24.655Z,7.25
2023-04-16T09:34:03.897Z,7.18
2023-04-16T09:36:33.703Z,7.28
2023-04-16T09:39:03.784Z,6.35
2023-04-16T09:41:35.925Z,7.82
2023-04-16T09:44:07.866Z,6.57
2023-04-16T09:46:38.243Z,6.38
2023-04-16T09:49:10.595Z,7.35
2023-04-16T09:51:40.809Z,6.20
2023-04-16T09:54:10.456Z,6.78
2023-04-16T09:56:42.036Z,7.07
2023-04-16T09:59:18.555Z,6.38
2023-04-16T10:01:49.648Z,6.20
2023-04-16T10:04:19.133Z,6.75
2023-04-16T10:07:04.540Z,6.78
2023-04-16T10:09:34.233Z,6.95
2023-04-16T10:12:03.375Z,6.63
2023-04-16T10:14:34.040Z,6.13
2023-04-16T10:17:03.445Z,6.45
2023-04-16T10:19:32.708Z,7.40
2023-04-16T10:22:01.774Z,6.10
2023-04-16T10:24:31.980Z,7.03
2023-04-16T10:27:01.691Z,6.15
2023-04-16T10:29:41.732Z,6.50
2023-04-16T10:32:14.860Z,7.93
2023-04-16T10:34:47.123Z,7.38
2023-04-16T10:37:19.500Z,5.80
2023-04-16T10:39:49.769Z,6.38
2023-04-16T10:42:18.973Z,7.80
2023-04-16T10:44:49.014Z,6.93
2023-04-16T10:47:19.615Z,5.32
2023-04-16T10:49:49.867Z,6.75
2023-04-16T10:52:19.437Z,8.35
2023-04-16T10:54:52.002Z,5.93
2023-04-16T10:57:21.914Z,6.38
2023-04-16T10:59:51.110Z,8.55
2023-04-16T11:02:21.817Z,8.85
2023-04-16T11:04:51.978Z,9.00
2023-04-16T11:07:22.528Z,6.97
2023-04-16T11:09:54.106Z,7.45
2023-04-16T11:12:23.748Z,6.43
2023-04-16T11:14:53.369Z,6.57
2023-04-16T11:17:24.015Z,7.65
2023-04-16T11:19:53.543Z,6.75
2023-04-16T11:22:23.035Z,5.28
2023-04-16T11:24:56.050Z,7.18
2023-04-16T11:27:25.835Z,6.75
2023-04-16T11:30:02.513Z,7.22
2023-04-16T11:32:34.822Z,7.35
2023-04-16T11:35:05.405Z,6.53
2023-04-16T11:37:38.101Z,7.22
2023-04-16T11:40:08.683Z,6.68
2023-04-16T11:42:40.611Z,5.65
2023-04-16T11:45:15.012Z,5.60
2023-04-16T11:47:46.743Z,6.05
2023-04-16T11:50:22.711Z,6.43
2023-04-16T11:52:52.734Z,6.38
2023-04-16T11:55:22.507Z,7.05
2023-04-16T11:57:52.670Z,5.95
2023-04-16T12:00:25.037Z,4.80
2023-04-16T12:02:56.153Z,5.85
2023-04-16T12:05:29.263Z,5.38
2023-04-16T12:07:58.527Z,5.75
2023-04-16T12:10:27.959Z,5.53
2023-04-16T12:12:57.601Z,5.55
2023-04-16T12:15:45.089Z,5.55
2023-04-16T12:18:20.308Z,6.55
2023-04-16T12:23:28.369Z,6.05
2023-04-16T12:25:59.683Z,5.38
2023-04-16T12:28:31.401Z,7.05
2023-04-16T12:31:01.145Z,5.75
2023-04-16T12:33:32.183Z,6.75
2023-04-16T12:36:01.807Z,5.68
2023-04-16T12:38:31.988Z,5.80
2023-04-16T12:41:02.400Z,5.18
2023-04-16T12:43:32.202Z,5.25
2023-04-16T12:46:04.154Z,4.88
2023-04-16T12:48:35.215Z,5.35
2023-04-16T12:51:04.248Z,5.25
2023-04-16T12:53:34.383Z,5.70
2023-04-16T12:56:03.859Z,6.15
2023-04-16T12:58:35.567Z,5.80
2023-04-16T13:01:04.653Z,6.57
2023-04-16T13:03:36.607Z,6.18
2023-04-16T13:06:06.365Z,4.93
2023-04-16T13:08:36.207Z,6.22
2023-04-16T13:11:05.270Z,5.30
2023-04-16T13:13:34.490Z,6.43
2023-04-16T13:16:06.772Z,5.43
2023-04-16T13:18:38.329Z,5.32
2023-04-16T13:21:07.944Z,5.13
2023-04-16T13:23:40.184Z,6.20
2023-04-16T13:26:09.226Z,6.57
2023-04-16T13:28:38.493Z,5.78
2023-04-16T13:31:07.784Z,6.20
2023-04-16T13:33:38.260Z,5.90
2023-04-16T13:36:08.302Z,6.38
2023-04-16T13:38:38.503Z,5.57
2023-04-16T13:41:11.053Z,5.28
2023-04-16T13:43:40.405Z,6.28
2023-04-16T13:46:09.819Z,5.80
2023-04-16T13:48:40.445Z,5.10
2023-04-16T13:51:09.742Z,5.18
2023-04-16T13:53:39.347Z,5.82
2023-04-16T13:56:08.897Z,7.80
2023-04-16T13:58:38.161Z,6.90
2023-04-16T14:01:07.437Z,7.63
2023-04-16T14:03:38.705Z,7.80
2023-04-16T14:06:09.279Z,10.00
2023-04-16T14:08:38.344Z,7.13
2023-04-16T14:11:09.345Z,8.05
2023-04-16T14:13:38.647Z,7.18
2023-04-16T14:16:08.274Z,8.75
2023-04-16T14:18:41.885Z,7.57
2023-04-16T14:21:12.457Z,6.78
2023-04-16T14:23:41.708Z,7.57
2023-04-16T14:26:12.296Z,7.15
2023-04-16T14:28:41.905Z,7.20
2023-04-16T14:31:12.003Z,5.70
2023-04-16T14:33:41.518Z,7.93
2023-04-16T14:36:11.911Z,8.38
2023-04-16T14:38:43.420Z,8.43
2023-04-16T14:41:13.201Z,7.25
2023-04-16T14:43:43.003Z,9.00
2023-04-16T14:46:12.215Z,10.25
2023-04-16T14:48:41.742Z,6.03
2023-04-16T14:51:12.366Z,5.60
2023-04-16T14:53:42.221Z,5.32
2023-04-16T14:56:13.616Z,6.78
2023-04-16T14:58:43.449Z,8.07
2023-04-16T15:01:15.310Z,7.30
2023-04-16T15:03:45.192Z,6.28
2023-04-16T15:06:16.573Z,7.93
2023-04-16T15:08:48.077Z,5.70
2023-04-16T15:11:17.604Z,5.77
2023-04-16T15:13:46.707Z,7.05
2023-04-16T15:16:17.882Z,7.22
2023-04-16T15:18:50.956Z,6.88
2023-04-16T15:21:22.305Z,7.22
2023-04-16T15:23:55.331Z,7.97
2023-04-16T15:26:28.117Z,7.22
2023-04-16T15:28:57.525Z,6.35
2023-04-16T15:31:27.148Z,7.38
2023-04-16T15:33:56.879Z,8.65
2023-04-16T15:36:27.828Z,8.10
2023-04-16T15:38:57.120Z,7.30
2023-04-16T15:41:26.437Z,5.72
2023-04-16T15:43:55.958Z,6.07
2023-04-16T15:46:34.411Z,7.72
2023-04-16T15:49:03.976Z,7.25
2023-04-16T15:51:35.668Z,6.20
2023-04-16T15:54:06.630Z,7.18
2023-04-16T15:56:36.016Z,6.40
2023-04-16T15:59:10.289Z,6.60
2023-04-16T16:01:40.106Z,5.55
2023-04-16T16:04:09.741Z,5.55
2023-04-16T16:06:42.673Z,6.38
2023-04-16T16:09:12.866Z,6.53
2023-04-16T16:11:42.920Z,6.47
2023-04-16T16:14:15.321Z,6.22
2023-04-16T16:16:45.602Z,5.95
2023-04-16T16:19:14.937Z,6.40
2023-04-16T16:21:49.345Z,6.60
2023-04-16T16:24:21.655Z,9.10
2023-04-16T16:26:55.206Z,6.20
2023-04-16T16:29:25.542Z,8.02
2023-04-16T16:31:58.043Z,6.30
2023-04-16T16:34:30.270Z,6.63
2023-04-16T16:39:30.382Z,7.07
2023-04-16T16:42:01.935Z,6.60
2023-04-16T16:44:31.462Z,7.78
2023-04-16T16:47:01.264Z,5.80
2023-04-16T16:49:31.291Z,5.97
2023-04-16T16:52:00.667Z,7.90
2023-04-16T16:54:31.563Z,8.13
2023-04-16T16:57:02.414Z,7.57
2023-04-16T16:59:31.988Z,8.93
2023-04-16T17:02:03.590Z,7.95
2023-04-16T17:04:32.657Z,7.00
2023-04-16T17:07:02.099Z,7.88
2023-04-16T17:09:32.721Z,8.00
2023-04-16T17:12:03.008Z,8.25
2023-04-16T17:14:32.397Z,7.35
2023-04-16T17:17:01.619Z,6.55
2023-04-16T17:19:31.339Z,6.22
2023-04-16T17:22:00.573Z,7.65
2023-04-16T17:24:29.700Z,6.68
2023-04-16T17:27:01.800Z,5.97
2023-04-16T17:29:32.027Z,5.63
2023-04-16T17:32:01.839Z,5.72
2023-04-16T17:34:32.867Z,4.97
2023-04-16T17:37:04.748Z,7.20
2023-04-16T17:39:35.952Z,6.28
2023-04-16T17:42:07.807Z,5.95
2023-04-16T17:44:37.269Z,6.05
2023-04-16T17:47:07.291Z,7.03
2023-04-16T17:49:36.564Z,8.15
2023-04-16T17:52:05.835Z,7.97
2023-04-16T17:54:35.546Z,6.60
2023-04-16T17:57:08.971Z,8.00
2023-04-16T17:59:38.270Z,7.88
2023-04-16T18:02:07.467Z,6.13
2023-04-16T18:04:41.953Z,8.13
2023-04-16T18:07:18.611Z,5.80
2023-04-16T18:09:50.880Z,6.63
2023-04-16T18:12:37.207Z,6.70
2023-04-16T18:15:07.200Z,7.07
2023-04-16T18:17:36.550Z,6.93
2023-04-16T18:20:14.990Z,6.80
2023-04-16T18:22:44.306Z,7.00
2023-04-16T18:25:14.475Z,6.63
2023-04-16T18:27:46.438Z,5.57
2023-04-16T18:30:23.475Z,6.72
2023-04-16T18:33:25.166Z,6.97
2023-04-16T18:35:52.171Z,8.02
2023-04-16T18:38:24.958Z,15.80
2023-04-16T18:40:55.336Z,7.28
2023-04-16T18:43:29.067Z,6.55
2023-04-16T18:46:01.440Z,6.47
2023-04-16T18:48:35.619Z,8.40
2023-04-16T18:51:08.395Z,7.63
2023-04-16T18:53:38.215Z,7.70
2023-04-16T18:56:11.295Z,6.28
2023-04-16T18:58:43.502Z,6.22
2023-04-16T19:03:44.155Z,5.55
2023-04-16T19:06:16.734Z,7.25
2023-04-16T19:08:46.085Z,6.85
2023-04-16T19:11:15.973Z,6.85
2023-04-16T19:13:47.587Z,7.22
2023-04-16T19:16:17.167Z,7.00
2023-04-16T19:18:47.900Z,5.53
2023-04-16T19:21:17.598Z,6.88
2023-04-16T19:23:47.905Z,5.75
2023-04-16T19:26:21.462Z,7.40
2023-04-16T19:28:55.081Z,6.90
2023-04-16T19:31:26.147Z,7.13
2023-04-16T19:33:55.495Z,8.05
2023-04-16T19:36:27.361Z,7.32
2023-04-16T19:38:59.902Z,8.20
2023-04-16T19:41:36.395Z,8.55
2023-04-16T19:44:07.270Z,7.47
2023-04-16T19:46:37.103Z,7.03
2023-04-16T19:49:09.295Z,7.05
2023-04-16T19:54:09.261Z,7.25
2023-04-16T19:56:38.817Z,9.00
2023-04-16T19:59:09.986Z,7.72
2023-04-16T20:01:41.553Z,7.82
2023-04-16T20:04:12.729Z,7.15
2023-04-16T20:06:42.153Z,7.47
2023-04-16T20:09:11.640Z,8.63
2023-04-16T20:11:41.825Z,8.13
2023-04-16T20:14:12.921Z,7.05
2023-04-16T20:16:43.767Z,7.57
2023-04-16T20:19:17.203Z,8.50
2023-04-16T20:21:46.812Z,7.38
2023-04-16T20:24:18.427Z,7.28
2023-04-16T20:26:47.643Z,5.32
2023-04-16T20:29:20.252Z,7.97
2023-04-16T20:31:49.932Z,6.45
2023-04-16T20:34:19.291Z,7.03
2023-04-16T20:36:48.455Z,6.70
2023-04-16T20:39:20.514Z,6.18
2023-04-16T20:41:56.750Z,8.30
2023-04-16T20:44:33.559Z,7.55
2023-04-16T20:47:03.193Z,6.22
2023-04-16T20:49:34.687Z,7.97
2023-04-16T20:52:04.497Z,7.80
2023-04-16T20:54:34.103Z,9.15
2023-04-16T20:57:05.089Z,8.40
2023-04-16T20:59:36.910Z,6.47
2023-04-16T21:02:08.428Z,6.15
2023-04-16T21:04:49.642Z,7.72
2023-04-16T21:07:20.061Z,6.13
2023-04-16T21:09:49.936Z,8.30
2023-04-16T21:12:22.503Z,8.73
2023-04-16T21:14:57.268Z,6.95
2023-04-16T21:17:26.682Z,7.35
2023-04-16T21:19:55.733Z,6.90
2023-04-16T21:22:28.140Z,10.25
2023-04-16T21:24:57.345Z,6.60
2023-04-16T21:27:26.511Z,6.95
2023-04-16T21:30:01.254Z,7.05
2023-04-16T21:32:30.586Z,9.18
2023-04-16T21:34:59.669Z,8.65
2023-04-16T21:37:28.734Z,9.15
2023-04-16T21:40:00.738Z,8.52
2023-04-16T21:42:31.486Z,8.35
2023-04-16T21:45:05.753Z,9.98
2023-04-16T21:47:35.081Z,9.07
2023-04-16T21:50:08.218Z,7.85
2023-04-16T21:52:46.575Z,8.65
2023-04-16T21:55:15.981Z,7.47
2023-04-16T21:57:45.860Z,6.43
2023-04-16T22:00:18.485Z,8.27
2023-04-16T22:02:50.540Z,7.75
2023-04-16T22:07:49.807Z,7.90
2023-04-16T22:10:19.909Z,9.05
2023-04-16T22:12:49.515Z,8.45
2023-04-16T22:15:21.077Z,8.15
2023-04-16T22:17:50.776Z,7.82
2023-04-16T22:20:20.523Z,8.23
2023-04-16T22:22:53.096Z,7.43
2023-04-16T22:25:25.123Z,6.30
2023-04-16T22:30:26.104Z,7.93
2023-04-16T22:32:58.041Z,6.82
2023-04-16T22:35:29.892Z,7.10
2023-04-16T22:37:59.557Z,8.13
2023-04-16T22:40:32.101Z,6.75
2023-04-16T22:43:03.904Z,7.70
2023-04-16T22:45:35.655Z,8.82
2023-04-16T22:48:05.892Z,7.80
2023-04-16T22:50:35.534Z,7.65
2023-04-16T22:53:04.776Z,8.07
2023-04-16T22:55:36.184Z,8.02
2023-04-16T22:58:08.032Z,7.90
2023-04-16T23:00:38.623Z,6.43
2023-04-16T23:03:09.125Z,8.57
2023-04-16T23:05:38.720Z,8.20
2023-04-16T23:08:08.021Z,8.40
2023-04-16T23:10:37.713Z,7.28
2023-04-16T23:13:10.759Z,7.25
2023-04-16T23:15:41.592Z,7.95
2023-04-16T23:18:11.128Z,7.65
2023-04-16T23:20:43.456Z,7.40
2023-04-16T23:23:13.433Z,6.13
2023-04-16T23:25:43.108Z,8.13
2023-04-16T23:28:12.801Z,8.85
2023-04-16T23:30:50.460Z,7.85
2023-04-16T23:33:20.102Z,7.00
2023-04-16T23:35:50.093Z,6.38
2023-04-16T23:38:20.449Z,7.22
2023-04-16T23:40:56.299Z,8.60
2023-04-16T23:43:26.539Z,7.78
2023-04-16T23:45:57.861Z,8.88
2023-04-16T23:48:27.924Z,7.60
2023-04-16T23:50:59.164Z,7.45
2023-04-16T23:53:41.085Z,7.87
2023-04-16T23:56:11.761Z,7.40
2023-04-16T23:58:42.310Z,8.35
